createdAt,value
2022-11-05T00:01:38.516Z,9.55
2022-11-05T00:04:00.077Z,9.56
2022-11-05T00:06:28.995Z,9.55
2022-11-05T00:08:49.325Z,9.56
2022-11-05T00:10:51.939Z,9.53
2022-11-05T00:13:13.246Z,9.54
2022-11-05T00:15:33.719Z,9.50
2022-11-05T00:17:36.710Z,9.49
2022-11-05T00:19:40.617Z,9.50
2022-11-05T00:22:00.672Z,9.50
2022-11-05T00:24:24.279Z,9.52
2022-11-05T00:26:27.027Z,9.54
2022-11-05T00:28:31.091Z,9.53
2022-11-05T00:30:33.671Z,9.54
2022-11-05T00:32:36.290Z,9.55
2022-11-05T00:34:40.204Z,9.57
2022-11-05T00:36:42.747Z,9.59
2022-11-05T00:38:45.281Z,9.58
2022-11-05T00:40:50.353Z,9.57
2022-11-05T00:43:11.132Z,9.55
2022-11-05T00:45:13.023Z,9.54
2022-11-05T00:47:33.062Z,9.56
2022-11-05T00:49:35.633Z,9.54
2022-11-05T00:51:39.538Z,9.56
2022-11-05T00:53:42.253Z,9.54
2022-11-05T00:55:46.697Z,9.54
2022-11-05T00:57:49.300Z,9.51
2022-11-05T00:59:51.918Z,9.48
2022-11-05T01:01:54.617Z,9.49
2022-11-05T01:03:57.287Z,9.50
2022-11-05T01:06:08.676Z,9.56
2022-11-05T01:08:13.129Z,9.60
2022-11-05T01:10:15.861Z,9.55
2022-11-05T01:12:18.434Z,9.58
2022-11-05T01:14:21.004Z,9.56
2022-11-05T01:16:23.563Z,9.55
2022-11-05T01:18:26.218Z,9.55
2022-11-05T01:20:28.817Z,9.64
2022-11-05T01:22:31.510Z,9.57
2022-11-05T01:24:35.485Z,9.55
2022-11-05T01:26:38.031Z,9.53
2022-11-05T01:28:40.684Z,9.54
2022-11-05T01:30:43.310Z,9.53
2022-11-05T01:32:45.977Z,9.58
2022-11-05T01:34:49.227Z,9.56
2022-11-05T01:36:51.807Z,9.62
2022-11-05T01:38:54.569Z,9.55
2022-11-05T01:40:58.495Z,9.53
2022-11-05T01:43:01.060Z,9.52
2022-11-05T01:45:12.418Z,9.50
2022-11-05T01:47:28.222Z,9.52
2022-11-05T01:49:34.923Z,9.52
2022-11-05T01:51:41.136Z,9.52
2022-11-05T01:53:48.528Z,9.64
2022-11-05T01:55:58.005Z,9.57
2022-11-05T01:58:03.683Z,9.52
2022-11-05T02:00:07.361Z,9.55
2022-11-05T02:02:10.262Z,9.53
2022-11-05T02:04:18.106Z,9.55
2022-11-05T02:06:21.300Z,9.54
2022-11-05T02:08:45.705Z,9.60
2022-11-05T02:10:49.525Z,9.65
2022-11-05T02:12:52.316Z,9.69
2022-11-05T02:14:56.399Z,9.55
2022-11-05T02:17:06.242Z,9.55
2022-11-05T02:19:35.703Z,9.53
2022-11-05T02:22:14.027Z,9.53
2022-11-05T02:24:39.063Z,9.54
2022-11-05T02:27:14.038Z,9.56
2022-11-05T02:29:57.316Z,9.55
2022-11-05T02:32:06.451Z,9.56
2022-11-05T02:34:17.559Z,9.54
2022-11-05T02:36:32.253Z,9.60
2022-11-05T02:38:41.707Z,9.54
2022-11-05T02:40:51.654Z,9.47
2022-11-05T02:43:03.268Z,9.46
2022-11-05T02:45:13.272Z,9.47
2022-11-05T02:47:26.264Z,9.44
2022-11-05T02:49:39.334Z,9.43
2022-11-05T02:51:49.068Z,9.46
2022-11-05T02:53:58.982Z,9.46
2022-11-05T02:56:06.586Z,9.48
2022-11-05T02:58:09.741Z,9.48
2022-11-05T03:00:45.139Z,9.48
2022-11-05T03:02:49.216Z,9.50
2022-11-05T03:04:51.954Z,9.45
2022-11-05T03:07:29.437Z,9.46
2022-11-05T03:09:59.370Z,9.46
2022-11-05T03:12:18.479Z,9.48
2022-11-05T03:14:25.480Z,9.49
2022-11-05T03:16:35.515Z,9.54
2022-11-05T03:18:43.224Z,9.51
2022-11-05T03:20:51.015Z,9.55
2022-11-05T03:22:59.993Z,9.54
2022-11-05T03:25:09.317Z,9.55
2022-11-05T03:27:16.219Z,9.51
2022-11-05T03:29:23.988Z,9.49
2022-11-05T03:31:30.057Z,9.47
2022-11-05T03:33:35.575Z,9.44
2022-11-05T03:35:42.519Z,9.42
2022-11-05T03:37:48.218Z,9.46
2022-11-05T03:39:55.172Z,9.42
2022-11-05T03:41:59.598Z,9.42
2022-11-05T03:44:07.401Z,9.44
2022-11-05T03:46:13.358Z,9.42
2022-11-05T03:48:18.885Z,9.42
2022-11-05T03:50:24.571Z,9.41
2022-11-05T03:52:34.406Z,9.38
2022-11-05T03:54:37.478Z,9.41
2022-11-05T03:56:46.835Z,9.39
2022-11-05T03:58:53.385Z,9.42
2022-11-05T04:01:02.085Z,9.43
2022-11-05T04:03:04.775Z,9.41
2022-11-05T04:05:07.924Z,9.44
2022-11-05T04:07:28.915Z,9.43
2022-11-05T04:10:04.699Z,9.41
2022-11-05T04:12:24.790Z,9.40
2022-11-05T04:14:27.489Z,9.37
2022-11-05T04:16:47.820Z,9.34
2022-11-05T04:18:50.355Z,9.39
2022-11-05T04:21:10.440Z,9.38
2022-11-05T04:23:42.066Z,9.44
2022-11-05T04:25:46.396Z,9.39
2022-11-05T04:27:49.674Z,9.47
2022-11-05T04:30:10.107Z,9.41
2022-11-05T04:32:12.717Z,9.38
2022-11-05T04:34:16.163Z,9.35
2022-11-05T04:36:19.563Z,9.37
2022-11-05T04:38:22.128Z,9.38
2022-11-05T04:40:24.909Z,9.38
2022-11-05T04:42:29.292Z,9.36
2022-11-05T04:44:31.922Z,9.37
2022-11-05T04:46:34.522Z,9.37
2022-11-05T04:48:37.660Z,9.38
2022-11-05T04:50:40.317Z,9.46
2022-11-05T04:52:43.081Z,9.41
2022-11-05T04:54:45.666Z,9.41
2022-11-05T04:56:48.197Z,9.40
2022-11-05T04:58:52.774Z,9.55
2022-11-05T05:00:55.381Z,9.43
2022-11-05T05:02:58.055Z,9.41
2022-11-05T05:05:00.654Z,9.38
2022-11-05T05:07:03.258Z,9.34
2022-11-05T05:09:05.821Z,9.37
2022-11-05T05:11:11.953Z,9.33
2022-11-05T05:13:14.503Z,9.35
2022-11-05T05:15:18.789Z,9.42
2022-11-05T05:17:21.393Z,9.42
2022-11-05T05:19:25.122Z,9.35
2022-11-05T05:21:38.721Z,9.33
2022-11-05T05:23:41.229Z,9.32
2022-11-05T05:25:43.771Z,9.34
2022-11-05T05:27:46.346Z,9.35
2022-11-05T05:29:48.907Z,9.36
2022-11-05T05:31:52.812Z,9.34
2022-11-05T05:33:55.773Z,9.36
2022-11-05T05:35:58.838Z,9.36
2022-11-05T05:38:01.346Z,9.36
2022-11-05T05:40:04.291Z,9.38
2022-11-05T05:42:06.879Z,9.37
2022-11-05T05:44:09.463Z,9.38
2022-11-05T05:46:14.770Z,9.41
2022-11-05T05:48:18.697Z,9.42
2022-11-05T05:50:21.564Z,9.43
2022-11-05T05:52:24.107Z,9.45
2022-11-05T05:54:31.919Z,9.46
2022-11-05T05:56:35.326Z,9.48
2022-11-05T05:58:39.904Z,9.48
2022-11-05T06:00:42.473Z,9.50
2022-11-05T06:02:45.188Z,9.49
2022-11-05T06:04:49.348Z,9.51
2022-11-05T06:06:51.916Z,9.51
2022-11-05T06:08:55.828Z,9.52
2022-11-05T06:10:58.879Z,9.52
2022-11-05T06:13:01.899Z,9.54
2022-11-05T06:15:05.261Z,9.50
2022-11-05T06:17:07.987Z,9.50
2022-11-05T06:19:10.550Z,9.50
2022-11-05T06:21:16.199Z,9.48
2022-11-05T06:23:18.739Z,9.46
2022-11-05T06:25:21.314Z,9.47
2022-11-05T06:27:23.900Z,9.48
2022-11-05T06:29:26.482Z,9.47
2022-11-05T06:31:29.123Z,9.45
2022-11-05T06:33:34.733Z,9.42
2022-11-05T06:35:37.338Z,9.40
2022-11-05T06:37:41.358Z,9.39
2022-11-05T06:39:43.916Z,9.37
2022-11-05T06:42:11.956Z,9.46
2022-11-05T06:44:09.008Z,9.38
2022-11-05T06:46:12.234Z,9.37
2022-11-05T06:48:14.823Z,9.36
2022-11-05T06:50:17.600Z,9.33
2022-11-05T06:52:20.906Z,9.34
2022-11-05T06:54:24.847Z,9.36
2022-11-05T06:56:27.636Z,9.34
2022-11-05T06:58:30.864Z,9.35
2022-11-05T07:00:33.801Z,9.35
2022-11-05T07:02:36.420Z,9.40
2022-11-05T07:04:38.992Z,9.40
2022-11-05T07:06:41.631Z,9.36
2022-11-05T07:08:44.266Z,9.37
2022-11-05T07:10:48.945Z,9.36
2022-11-05T07:12:51.566Z,9.36
2022-11-05T07:14:54.087Z,9.42
2022-11-05T07:16:58.000Z,9.37
2022-11-05T07:19:00.830Z,9.36
2022-11-05T07:21:03.446Z,9.37
2022-11-05T07:23:08.305Z,9.42
2022-11-05T07:25:11.084Z,9.48
2022-11-05T07:27:15.063Z,9.45
2022-11-05T07:29:17.667Z,9.42
2022-11-05T07:31:20.226Z,9.46
2022-11-05T07:33:22.760Z,9.48
2022-11-05T07:35:25.629Z,9.38
2022-11-05T07:37:28.175Z,9.33
2022-11-05T07:39:30.752Z,9.34
2022-11-05T07:41:33.313Z,9.25
2022-11-05T07:43:37.270Z,9.30
2022-11-05T07:45:39.864Z,9.26
2022-11-05T07:47:47.644Z,9.35
2022-11-05T07:49:50.214Z,9.29
2022-11-05T07:51:53.589Z,9.37
2022-11-05T07:53:56.159Z,9.34
2022-11-05T07:55:58.922Z,9.31
2022-11-05T07:58:01.581Z,9.33
2022-11-05T08:00:06.433Z,9.35
2022-11-05T08:02:11.158Z,9.37
2022-11-05T08:04:13.953Z,9.37
2022-11-05T08:06:16.514Z,9.42
2022-11-05T08:08:20.510Z,9.38
2022-11-05T08:10:23.495Z,9.37
2022-11-05T08:12:26.057Z,9.42
2022-11-05T08:14:28.600Z,9.40
2022-11-05T08:16:32.519Z,9.42
2022-11-05T08:18:35.070Z,9.45
2022-11-05T08:20:38.437Z,9.41
2022-11-05T08:22:43.371Z,9.41
2022-11-05T08:24:45.964Z,9.42
2022-11-05T08:26:48.488Z,9.43
2022-11-05T08:28:51.057Z,9.44
2022-11-05T08:30:55.485Z,9.42
2022-11-05T08:33:00.833Z,9.43
2022-11-05T08:35:03.416Z,9.43
2022-11-05T08:37:06.030Z,9.42
2022-11-05T08:39:14.305Z,9.42
2022-11-05T08:41:19.311Z,9.43
2022-11-05T08:43:21.928Z,9.46
2022-11-05T08:45:24.850Z,9.48
2022-11-05T08:47:27.427Z,9.49
2022-11-05T08:49:31.330Z,9.52
2022-11-05T08:51:33.892Z,9.53
2022-11-05T08:53:36.413Z,9.52
2022-11-05T08:55:39.374Z,9.51
2022-11-05T08:57:41.961Z,9.57
2022-11-05T08:59:44.542Z,9.57
2022-11-05T09:01:47.321Z,9.57
2022-11-05T09:03:52.264Z,9.55
2022-11-05T09:05:56.150Z,9.53
2022-11-05T09:08:01.305Z,9.50
2022-11-05T09:10:04.582Z,9.50
2022-11-05T09:12:12.673Z,9.53
2022-11-05T09:14:15.583Z,9.52
2022-11-05T09:16:21.423Z,9.54
2022-11-05T09:18:24.015Z,9.56
2022-11-05T09:20:26.588Z,9.57
2022-11-05T09:22:30.838Z,9.58
2022-11-05T09:24:33.387Z,9.60
2022-11-05T09:26:36.002Z,9.62
2022-11-05T09:28:38.879Z,9.59
2022-11-05T09:30:42.625Z,9.60
2022-11-05T09:32:45.183Z,9.60
2022-11-05T09:34:48.945Z,9.63
2022-11-05T09:36:51.504Z,9.65
2022-11-05T09:38:55.422Z,9.66
2022-11-05T09:41:04.364Z,9.64
2022-11-05T09:43:07.709Z,9.66
2022-11-05T09:45:16.219Z,9.67
2022-11-05T09:47:24.719Z,9.69
2022-11-05T09:49:30.269Z,9.77
2022-11-05T09:51:34.119Z,9.79
2022-11-05T09:53:41.078Z,9.73
2022-11-05T09:55:48.900Z,9.82
2022-11-05T09:57:55.192Z,9.83
2022-11-05T10:00:00.449Z,9.72
2022-11-05T10:02:12.302Z,9.86
2022-11-05T10:04:17.531Z,9.84
2022-11-05T10:06:22.344Z,9.80
2022-11-05T10:08:29.371Z,9.71
2022-11-05T10:10:40.780Z,9.68
2022-11-05T10:12:48.991Z,9.65
2022-11-05T10:15:11.513Z,9.70
2022-11-05T10:17:22.288Z,9.77
2022-11-05T10:19:27.183Z,9.80
2022-11-05T10:21:59.722Z,9.90
2022-11-05T10:23:53.523Z,9.75
2022-11-05T10:25:58.769Z,9.93
2022-11-05T10:28:05.589Z,10.00
2022-11-05T10:30:10.817Z,9.98
2022-11-05T10:32:18.967Z,9.93
2022-11-05T10:34:24.587Z,9.95
2022-11-05T10:36:31.918Z,10.02
2022-11-05T10:38:34.739Z,10.09
2022-11-05T10:40:47.788Z,10.10
2022-11-05T10:43:00.021Z,10.09
2022-11-05T10:45:13.862Z,10.14
2022-11-05T10:47:40.716Z,10.19
2022-11-05T10:49:56.468Z,10.19
2022-11-05T10:52:01.448Z,10.20
2022-11-05T10:54:12.612Z,10.21
2022-11-05T10:56:34.014Z,10.19
2022-11-05T10:58:38.965Z,10.22
2022-11-05T11:00:44.301Z,10.26
2022-11-05T11:02:50.622Z,10.20
2022-11-05T11:04:54.637Z,10.27
2022-11-05T11:06:59.695Z,10.27
2022-11-05T11:09:04.782Z,10.27
2022-11-05T11:11:11.371Z,10.26
2022-11-05T11:13:21.530Z,10.24
2022-11-05T11:15:27.558Z,10.27
2022-11-05T11:17:33.252Z,10.31
2022-11-05T11:19:37.382Z,10.43
2022-11-05T11:21:41.627Z,10.38
2022-11-05T11:23:54.050Z,10.40
2022-11-05T11:26:01.613Z,10.43
2022-11-05T11:28:06.722Z,10.45
2022-11-05T11:30:19.014Z,10.44
2022-11-05T11:32:22.938Z,10.46
2022-11-05T11:34:30.898Z,10.49
2022-11-05T11:36:36.659Z,10.50
2022-11-05T11:38:40.341Z,10.53
2022-11-05T11:40:43.408Z,10.51
2022-11-05T11:42:48.400Z,10.54
2022-11-05T11:44:52.438Z,10.63
2022-11-05T11:46:58.519Z,10.58
2022-11-05T11:49:01.347Z,10.56
2022-11-05T11:51:29.969Z,10.56
2022-11-05T11:53:35.687Z,10.54
2022-11-05T11:55:38.268Z,10.52
2022-11-05T11:57:45.388Z,10.60
2022-11-05T12:00:07.871Z,10.51
2022-11-05T12:02:42.997Z,10.46
2022-11-05T12:05:11.292Z,10.46
2022-11-05T12:07:33.463Z,10.47
2022-11-05T12:09:55.944Z,10.45
2022-11-05T12:12:05.951Z,10.47
2022-11-05T12:14:23.793Z,10.46
2022-11-05T12:16:37.651Z,10.45
2022-11-05T12:18:48.848Z,10.46
2022-11-05T12:21:06.072Z,10.42
2022-11-05T12:23:20.428Z,10.42
2022-11-05T12:25:28.900Z,10.41
2022-11-05T12:27:45.933Z,10.35
2022-11-05T12:29:58.489Z,10.34
2022-11-05T12:32:20.675Z,10.37
2022-11-05T12:34:40.064Z,10.43
2022-11-05T12:36:56.921Z,10.33
2022-11-05T12:39:29.064Z,10.39
2022-11-05T12:41:33.773Z,10.25
2022-11-05T12:43:45.448Z,10.29
2022-11-05T12:45:57.432Z,10.29
2022-11-05T12:48:12.859Z,10.30
2022-11-05T12:50:23.312Z,10.21
2022-11-05T12:52:50.675Z,10.26
2022-11-05T12:55:04.040Z,10.20
2022-11-05T12:57:09.768Z,10.20
2022-11-05T12:59:20.330Z,10.18
2022-11-05T13:01:32.043Z,10.20
2022-11-05T13:03:43.299Z,10.23
2022-11-05T13:05:49.501Z,10.31
2022-11-05T13:07:59.254Z,10.27
2022-11-05T13:10:09.047Z,10.35
2022-11-05T13:12:14.363Z,10.28
2022-11-05T13:14:21.522Z,10.28
2022-11-05T13:16:30.369Z,10.21
2022-11-05T13:18:46.787Z,10.28
2022-11-05T13:20:53.087Z,10.34
2022-11-05T13:22:59.929Z,10.33
2022-11-05T13:25:11.515Z,10.28
2022-11-05T13:27:37.888Z,10.29
2022-11-05T13:29:46.397Z,10.21
2022-11-05T13:31:53.112Z,10.24
2022-11-05T13:33:57.181Z,10.28
2022-11-05T13:36:23.066Z,10.29
2022-11-05T13:38:44.891Z,10.28
2022-11-05T13:41:02.147Z,10.30
2022-11-05T13:43:28.305Z,10.33
2022-11-05T13:46:05.606Z,10.34
2022-11-05T13:48:28.670Z,10.33
2022-11-05T13:50:50.255Z,10.34
2022-11-05T13:53:09.975Z,10.33
2022-11-05T13:55:38.568Z,10.31
2022-11-05T13:57:56.941Z,10.27
2022-11-05T14:00:08.135Z,10.25
2022-11-05T14:02:16.752Z,10.23
2022-11-05T14:04:32.267Z,10.22
2022-11-05T14:06:37.434Z,10.21
2022-11-05T14:08:42.448Z,10.19
2022-11-05T14:10:46.883Z,10.19
2022-11-05T14:12:53.800Z,10.18
2022-11-05T14:15:02.238Z,10.21
2022-11-05T14:17:16.955Z,10.20
2022-11-05T14:19:34.455Z,10.19
2022-11-05T14:21:49.135Z,10.20
2022-11-05T14:23:54.059Z,10.17
2022-11-05T14:25:59.665Z,10.20
2022-11-05T14:28:04.017Z,10.16
2022-11-05T14:30:41.139Z,10.17
2022-11-05T14:32:48.610Z,10.11
2022-11-05T14:34:56.580Z,10.12
2022-11-05T14:37:25.490Z,10.11
2022-11-05T14:39:29.938Z,10.14
2022-11-05T14:41:32.630Z,10.12
2022-11-05T14:43:36.852Z,10.10
2022-11-05T14:45:41.497Z,10.11
2022-11-05T14:47:51.335Z,10.12
2022-11-05T14:49:59.167Z,10.10
2022-11-05T14:52:08.723Z,10.13
2022-11-05T14:54:21.327Z,10.10
2022-11-05T14:56:23.977Z,10.09
2022-11-05T14:58:30.352Z,10.10
2022-11-05T15:00:49.531Z,10.10
2022-11-05T15:02:58.114Z,10.08
2022-11-05T15:05:39.541Z,10.07
2022-11-05T15:07:42.194Z,10.08
2022-11-05T15:09:48.368Z,10.11
2022-11-05T15:12:04.073Z,10.08
2022-11-05T15:14:09.323Z,10.07
2022-11-05T15:16:20.528Z,10.04
2022-11-05T15:18:30.437Z,10.02
2022-11-05T15:20:40.138Z,10.04
2022-11-05T15:22:45.585Z,10.03
2022-11-05T15:24:48.647Z,10.04
2022-11-05T15:26:58.253Z,10.02
2022-11-05T15:29:02.409Z,10.02
2022-11-05T15:31:07.261Z,10.01
2022-11-05T15:33:20.087Z,9.96
2022-11-05T15:35:28.001Z,10.00
2022-11-05T15:37:30.615Z,9.98
2022-11-05T15:39:40.425Z,10.01
2022-11-05T15:41:44.098Z,9.99
2022-11-05T15:43:48.186Z,9.98
2022-11-05T15:46:02.082Z,9.99
2022-11-05T15:48:15.499Z,9.91
2022-11-05T15:50:18.145Z,9.93
2022-11-05T15:52:22.431Z,9.88
2022-11-05T15:54:30.399Z,9.82
2022-11-05T15:56:36.727Z,9.82
2022-11-05T15:58:46.408Z,9.83
2022-11-05T16:00:50.274Z,9.81
2022-11-05T16:02:55.802Z,9.82
2022-11-05T16:05:01.211Z,9.84
2022-11-05T16:07:10.035Z,9.84
2022-11-05T16:09:22.967Z,9.83
2022-11-05T16:11:27.173Z,9.82
2022-11-05T16:13:33.740Z,9.84
2022-11-05T16:15:36.319Z,9.84
2022-11-05T16:17:48.319Z,9.81
2022-11-05T16:19:51.566Z,9.79
2022-11-05T16:21:55.749Z,9.75
2022-11-05T16:24:00.581Z,9.75
2022-11-05T16:26:03.172Z,9.70
2022-11-05T16:28:08.130Z,9.68
2022-11-05T16:30:18.904Z,9.68
2022-11-05T16:32:30.295Z,9.67
2022-11-05T16:34:37.793Z,9.66
2022-11-05T16:36:40.420Z,9.66
2022-11-05T16:38:44.958Z,9.68
2022-11-05T16:40:47.545Z,9.67
2022-11-05T16:42:52.153Z,9.67
2022-11-05T16:44:56.176Z,9.65
2022-11-05T16:46:58.745Z,9.63
2022-11-05T16:49:01.298Z,9.61
2022-11-05T16:51:03.907Z,9.57
2022-11-05T16:53:06.522Z,9.53
2022-11-05T16:55:12.101Z,9.52
2022-11-05T16:57:23.930Z,9.51
2022-11-05T16:59:26.413Z,9.48
2022-11-05T17:01:29.158Z,9.47
2022-11-05T17:03:32.238Z,9.44
2022-11-05T17:05:34.871Z,9.42
2022-11-05T17:07:41.333Z,9.35
2022-11-05T17:09:44.315Z,9.30
2022-11-05T17:11:48.269Z,9.30
2022-11-05T17:13:51.034Z,9.22
2022-11-05T17:15:53.700Z,9.18
2022-11-05T17:17:56.534Z,9.11
2022-11-05T17:19:59.057Z,9.10
2022-11-05T17:22:01.679Z,9.05
2022-11-05T17:24:04.474Z,9.01
2022-11-05T17:26:09.140Z,8.98
2022-11-05T17:28:13.803Z,8.93
2022-11-05T17:30:17.174Z,8.88
2022-11-05T17:32:19.804Z,8.86
2022-11-05T17:34:22.421Z,8.83
2022-11-05T17:36:25.151Z,8.81
2022-11-05T17:38:28.210Z,8.77
2022-11-05T17:40:30.886Z,8.72
2022-11-05T17:42:33.692Z,8.78
2022-11-05T17:44:37.734Z,8.64
2022-11-05T17:46:40.315Z,8.55
2022-11-05T17:48:44.727Z,8.52
2022-11-05T17:50:49.392Z,8.48
2022-11-05T17:52:51.925Z,8.46
2022-11-05T17:54:54.669Z,8.45
2022-11-05T17:56:57.219Z,8.39
2022-11-05T17:59:01.099Z,8.38
2022-11-05T18:01:05.847Z,8.35
2022-11-05T18:03:08.537Z,8.31
2022-11-05T18:05:12.884Z,8.30
2022-11-05T18:07:15.481Z,8.25
2022-11-05T18:09:18.116Z,8.24
2022-11-05T18:11:20.816Z,8.24
2022-11-05T18:13:23.469Z,8.22
2022-11-05T18:15:28.432Z,8.22
2022-11-05T18:17:34.757Z,8.25
2022-11-05T18:20:14.204Z,8.27
2022-11-05T18:22:20.230Z,8.27
2022-11-05T18:24:23.254Z,8.24
2022-11-05T18:26:25.878Z,8.23
2022-11-05T18:28:31.020Z,8.21
2022-11-05T18:30:34.223Z,8.21
2022-11-05T18:32:38.206Z,8.20
2022-11-05T18:34:40.957Z,8.16
2022-11-05T18:36:44.745Z,8.14
2022-11-05T18:38:47.596Z,8.15
2022-11-05T18:40:50.225Z,8.13
2022-11-05T18:42:52.850Z,8.14
2022-11-05T18:44:55.549Z,8.12
2022-11-05T18:46:58.948Z,8.11
2022-11-05T18:49:03.265Z,8.08
2022-11-05T18:51:08.464Z,8.10
2022-11-05T18:53:14.003Z,8.05
2022-11-05T18:55:16.610Z,8.07
2022-11-05T18:57:19.835Z,8.02
2022-11-05T18:59:36.909Z,7.98
2022-11-05T19:01:41.515Z,7.99
2022-11-05T19:03:44.904Z,7.98
2022-11-05T19:05:48.954Z,7.96
2022-11-05T19:07:51.922Z,7.96
2022-11-05T19:09:54.569Z,7.99
2022-11-05T19:11:57.157Z,7.99
2022-11-05T19:14:00.096Z,7.96
2022-11-05T19:16:02.701Z,7.98
2022-11-05T19:18:05.329Z,7.93
2022-11-05T19:20:09.370Z,7.91
2022-11-05T19:22:13.278Z,7.91
2022-11-05T19:24:17.289Z,7.89
2022-11-05T19:26:28.405Z,7.87
2022-11-05T19:28:31.713Z,7.84
2022-11-05T19:30:34.288Z,7.80
2022-11-05T19:32:36.863Z,7.76
2022-11-05T19:34:39.414Z,7.70
2022-11-05T19:36:42.649Z,7.67
2022-11-05T19:38:46.902Z,7.64
2022-11-05T19:40:49.742Z,7.62
2022-11-05T19:42:52.567Z,7.57
2022-11-05T19:44:55.232Z,7.56
2022-11-05T19:46:57.994Z,7.56
2022-11-05T19:49:01.833Z,7.56
2022-11-05T19:51:06.323Z,7.52
2022-11-05T19:53:09.055Z,7.48
2022-11-05T19:55:13.140Z,7.49
2022-11-05T19:57:15.729Z,7.47
2022-11-05T19:59:18.638Z,7.45
2022-11-05T20:01:22.939Z,7.45
2022-11-05T20:03:25.708Z,7.45
2022-11-05T20:05:28.442Z,7.43
2022-11-05T20:07:31.516Z,7.42
2022-11-05T20:09:34.925Z,7.43
2022-11-05T20:11:39.893Z,7.41
2022-11-05T20:13:42.548Z,7.43
2022-11-05T20:15:46.215Z,7.42
2022-11-05T20:17:50.741Z,7.45
2022-11-05T20:19:53.478Z,7.44
2022-11-05T20:21:56.214Z,7.46
2022-11-05T20:23:59.362Z,7.44
2022-11-05T20:26:02.107Z,7.43
2022-11-05T20:28:06.553Z,7.41
2022-11-05T20:30:10.886Z,7.40
2022-11-05T20:32:14.307Z,7.37
2022-11-05T20:34:16.963Z,7.37
2022-11-05T20:36:22.067Z,7.32
2022-11-05T20:38:24.705Z,7.30
2022-11-05T20:40:27.581Z,7.29
2022-11-05T20:42:30.385Z,7.29
2022-11-05T20:44:34.467Z,7.27
2022-11-05T20:46:37.086Z,7.24
2022-11-05T20:48:39.717Z,7.20
2022-11-05T20:50:42.771Z,7.20
2022-11-05T20:52:45.936Z,7.19
2022-11-05T20:54:49.048Z,7.17
2022-11-05T20:56:51.929Z,7.14
2022-11-05T20:58:55.519Z,7.14
2022-11-05T21:00:59.577Z,7.13
2022-11-05T21:03:02.287Z,7.09
2022-11-05T21:05:07.429Z,7.14
2022-11-05T21:07:10.346Z,7.15
2022-11-05T21:09:13.165Z,7.14
2022-11-05T21:11:15.924Z,7.16
2022-11-05T21:13:19.015Z,7.16
2022-11-05T21:15:23.190Z,7.14
2022-11-05T21:17:27.130Z,7.14
2022-11-05T21:19:32.147Z,7.13
2022-11-05T21:21:40.020Z,7.18
2022-11-05T21:23:43.659Z,7.14
2022-11-05T21:25:46.512Z,7.13
2022-11-05T21:27:49.103Z,7.18
2022-11-05T21:29:53.017Z,7.19
2022-11-05T21:31:55.776Z,7.17
2022-11-05T21:33:59.724Z,7.17
2022-11-05T21:36:07.517Z,7.16
2022-11-05T21:38:10.810Z,7.14
2022-11-05T21:40:13.540Z,7.14
2022-11-05T21:42:16.130Z,7.13
2022-11-05T21:44:18.843Z,7.12
2022-11-05T21:46:21.866Z,7.09
2022-11-05T21:48:24.523Z,7.06
2022-11-05T21:50:42.485Z,7.05
2022-11-05T21:53:17.136Z,6.99
2022-11-05T21:55:37.598Z,6.93
2022-11-05T21:57:58.590Z,6.84
2022-11-05T22:00:02.049Z,6.79
2022-11-05T22:02:05.591Z,6.78
2022-11-05T22:04:08.340Z,6.77
2022-11-05T22:06:12.321Z,6.72
2022-11-05T22:08:15.291Z,6.69
2022-11-05T22:10:18.067Z,6.67
2022-11-05T22:12:21.020Z,6.67
2022-11-05T22:14:24.630Z,6.67
2022-11-05T22:16:27.394Z,6.67
2022-11-05T22:18:30.446Z,6.66
2022-11-05T22:20:33.021Z,6.66
2022-11-05T22:22:37.122Z,6.65
2022-11-05T22:24:40.772Z,6.60
2022-11-05T22:26:44.907Z,6.57
2022-11-05T22:28:47.581Z,6.55
2022-11-05T22:30:50.221Z,6.53
2022-11-05T22:32:52.797Z,6.52
2022-11-05T22:34:55.394Z,6.54
2022-11-05T22:36:57.993Z,6.47
2022-11-05T22:39:02.392Z,6.43
2022-11-05T22:41:08.529Z,6.41
2022-11-05T22:43:11.164Z,6.37
2022-11-05T22:45:13.756Z,6.32
2022-11-05T22:47:18.020Z,6.24
2022-11-05T22:49:20.792Z,6.23
2022-11-05T22:51:25.112Z,6.21
2022-11-05T22:53:27.678Z,6.23
2022-11-05T22:55:31.618Z,6.24
2022-11-05T22:57:34.241Z,6.25
2022-11-05T22:59:36.833Z,6.25
2022-11-05T23:01:39.618Z,6.26
2022-11-05T23:03:44.381Z,6.23
2022-11-05T23:05:46.990Z,6.28
2022-11-05T23:08:07.271Z,6.28
2022-11-05T23:10:27.892Z,6.25
2022-11-05T23:12:34.185Z,6.21
2022-11-05T23:14:37.376Z,6.20
2022-11-05T23:16:58.757Z,6.22
2022-11-05T23:19:18.838Z,6.15
2022-11-05T23:21:38.920Z,6.14
2022-11-05T23:23:59.349Z,6.18
2022-11-05T23:26:22.648Z,6.13
2022-11-05T23:28:26.686Z,6.12
2022-11-05T23:30:29.887Z,6.12
2022-11-05T23:32:32.833Z,6.11
2022-11-05T23:34:35.751Z,6.12
2022-11-05T23:36:56.059Z,6.13
2022-11-05T23:38:58.657Z,6.12
2022-11-05T23:41:19.974Z,6.12
2022-11-05T23:43:40.272Z,6.12
2022-11-05T23:46:02.566Z,6.10
2022-11-05T23:48:17.845Z,6.06
2022-11-05T23:50:20.474Z,6.06
2022-11-05T23:52:23.139Z,6.07
2022-11-05T23:54:25.781Z,6.05
2022-11-05T23:56:28.389Z,6.04
2022-11-05T23:58:31.102Z,6.04
